Time;durP1;ratioP1;P1;durP2;ratioP2;P2;SDS_P1;SDS_P2;PMS_P1;PMS_P2;Temp;Humidity;BMP_temperature;BMP_pressure;BME280_temperature;BME280_humidity;BME280_pressure;Samples;Min_cycle;Max_cycle;Signal;HPM_P1;HPM_P2
2023/05/03 00:01:17;;;;;;;13.17;9.03;;;2.10;99.90;1.00;101118;;;;580519;243;24052;-75
2023/05/03 00:03:49;;;;;;;10.60;8.80;;;2.10;99.90;1.00;101118;;;;580483;243;24065;-76
2023/05/03 00:06:13;;;;;;;14.17;9.00;;;2.00;99.90;0.90;101123;;;;580375;243;24076;-75
2023/05/03 00:08:42;;;;;;;11.37;8.17;;;2.00;99.90;0.90;101115;;;;580430;243;24117;-76
2023/05/03 00:11:09;;;;;;;8.53;6.93;;;2.00;99.90;0.90;101106;;;;581421;243;24083;-75
2023/05/03 00:13:37;;;;;;;8.73;7.00;;;2.00;99.90;0.90;101107;;;;579440;243;24108;-74
2023/05/03 00:16:05;;;;;;;7.77;6.60;;;2.00;99.90;0.90;101115;;;;581380;243;24155;-76
2023/05/03 00:18:33;;;;;;;12.03;6.77;;;2.00;99.90;1.00;101117;;;;580883;243;24114;-76
2023/05/03 00:21:01;;;;;;;12.57;6.90;;;2.00;99.90;0.90;101109;;;;580814;243;24095;-76
2023/05/03 00:23:30;;;;;;;7.77;6.73;;;2.00;99.90;0.90;101111;;;;580679;243;24048;-77
2023/05/03 00:25:58;;;;;;;11.80;7.83;;;2.00;99.90;0.90;101103;;;;580527;243;24088;-77
2023/05/03 00:28:26;;;;;;;9.40;6.83;;;2.00;99.90;0.90;101108;;;;580637;243;24056;-76
2023/05/03 00:30:55;;;;;;;10.53;6.93;;;2.00;99.90;0.90;101114;;;;578182;243;24115;-76
2023/05/03 00:33:22;;;;;;;10.03;6.90;;;2.00;99.90;0.80;101108;;;;580468;243;24101;-77
2023/05/03 00:35:51;;;;;;;10.20;7.10;;;1.90;99.90;0.80;101111;;;;580373;243;24138;-77
2023/05/03 00:38:19;;;;;;;11.90;7.30;;;1.90;99.90;0.80;101108;;;;580478;243;24062;-76
2023/05/03 00:40:47;;;;;;;12.37;7.60;;;1.90;99.90;0.80;101107;;;;580466;243;25147;-76
2023/05/03 00:43:15;;;;;;;12.03;7.27;;;1.90;99.90;0.80;101099;;;;579634;243;24111;-78
2023/05/03 00:45:45;;;;;;;12.87;8.07;;;1.90;99.90;0.80;101104;;;;580463;243;24066;-76
2023/05/03 00:48:11;;;;;;;9.67;8.20;;;1.90;99.90;0.80;101108;;;;580045;243;24106;-76
2023/05/03 00:50:42;;;;;;;12.77;8.80;;;1.90;99.90;0.80;101112;;;;580518;243;24083;-77
2023/05/03 00:53:06;;;;;;;11.53;7.97;;;1.90;99.90;0.80;101109;;;;580251;243;24060;-77
2023/05/03 00:55:34;;;;;;;9.20;7.77;;;1.80;99.90;0.70;101113;;;;580493;243;24139;-76
2023/05/03 00:58:02;;;;;;;11.10;9.07;;;1.80;99.90;0.70;101116;;;;589321;243;24116;-76
2023/05/03 01:00:30;;;;;;;11.53;8.40;;;1.80;99.90;0.70;101111;;;;580019;243;24060;-78
2023/05/03 01:02:58;;;;;;;11.67;8.40;;;1.80;99.90;0.80;101111;;;;580238;243;24125;-78
2023/05/03 01:05:27;;;;;;;17.63;9.43;;;1.80;99.90;0.80;101112;;;;580152;243;24153;-76
2023/05/03 01:08:07;;;;;;;14.63;9.50;;;1.80;99.90;0.80;101110;;;;586899;243;24061;-77
2023/05/03 01:11:01;;;;;;;16.27;9.13;;;1.80;99.90;0.80;101111;;;;579791;243;24213;-77
2023/05/03 01:13:44;;;;;;;13.47;9.67;;;1.80;99.90;0.80;101112;;;;582004;243;24092;-77
2023/05/03 01:16:12;;;;;;;14.23;9.57;;;1.80;99.90;0.70;101112;;;;581434;243;24143;-77
2023/05/03 01:18:42;;;;;;;14.50;9.10;;;1.80;99.90;0.70;101108;;;;581486;241;24041;-77
2023/05/03 01:21:08;;;;;;;16.50;9.80;;;1.80;99.90;0.70;101114;;;;579819;243;24091;-78
2023/05/03 01:23:55;;;;;;;16.97;9.87;;;1.80;99.90;0.80;101115;;;;581810;243;24117;-77
2023/05/03 01:26:26;;;;;;;18.00;9.77;;;1.80;99.90;0.80;101109;;;;581449;243;24099;-78
2023/05/03 01:28:53;;;;;;;19.43;10.37;;;1.90;99.90;0.80;101105;;;;579608;243;24066;-78
2023/05/03 01:31:46;;;;;;;14.13;10.43;;;1.90;99.90;0.90;101104;;;;581465;246;24151;-78
2023/05/03 01:34:16;;;;;;;20.17;10.50;;;1.90;99.90;0.90;101109;;;;580727;243;24068;-76
2023/05/03 01:36:48;;;;;;;13.40;9.50;;;1.90;99.90;0.90;101108;;;;581016;243;24066;-77
2023/05/03 01:39:21;;;;;;;19.87;10.27;;;1.90;99.90;1.00;101099;;;;578655;243;24063;-77
2023/05/03 01:41:49;;;;;;;19.73;10.30;;;2.00;99.90;1.00;101104;;;;580699;243;24167;-77
2023/05/03 01:44:17;;;;;;;14.83;10.87;;;2.00;99.90;1.00;101107;;;;578138;243;24084;-77
2023/05/03 01:46:49;;;;;;;16.63;10.53;;;2.10;99.90;1.10;101106;;;;580707;243;24061;-78
2023/05/03 01:49:13;;;;;;;17.53;10.57;;;2.10;99.90;1.10;101103;;;;578493;243;24080;-77
2023/05/03 01:51:40;;;;;;;12.10;9.23;;;2.20;99.90;1.20;101116;;;;589284;243;25107;-78
2023/05/03 01:54:08;;;;;;;16.63;10.20;;;2.20;99.90;1.20;101110;;;;580501;243;24075;-77
2023/05/03 01:56:36;;;;;;;15.03;9.40;;;2.30;99.90;1.30;101106;;;;580409;243;24078;-76
2023/05/03 01:59:05;;;;;;;17.13;10.27;;;2.30;99.90;1.40;101108;;;;580093;243;24107;-76
2023/05/03 02:01:34;;;;;;;16.70;10.07;;;2.40;99.90;1.50;101109;;;;580117;243;24167;-77
2023/05/03 02:04:02;;;;;;;12.40;9.47;;;2.40;99.90;1.50;101107;;;;580027;243;24143;-77
2023/05/03 02:06:30;;;;;;;13.37;9.03;;;2.50;99.90;1.60;101116;;;;580232;243;24150;-76
2023/05/03 02:08:57;;;;;;;15.03;9.73;;;2.50;99.90;1.70;101112;;;;580190;243;24083;-76
2023/05/03 02:11:26;;;;;;;20.50;9.87;;;2.60;99.90;1.70;101117;;;;580259;243;24158;-77
2023/05/03 02:13:54;;;;;;;17.95;12.37;;;2.60;99.90;1.70;101115;;;;575040;243;35216;-76
2023/05/03 02:16:22;;;;;;;19.90;9.73;;;2.70;99.90;1.70;101115;;;;580370;243;24067;-76
2023/05/03 02:18:50;;;;;;;15.63;9.83;;;2.70;99.90;1.80;101103;;;;580249;243;24126;-78
2023/05/03 02:21:18;;;;;;;18.13;10.53;;;2.70;99.90;1.80;101111;;;;580467;243;24107;-78
2023/05/03 02:23:46;;;;;;;14.57;9.30;;;2.80;99.90;1.80;101118;;;;589101;243;24152;-77
2023/05/03 02:26:14;;;;;;;13.67;9.47;;;2.80;99.90;1.80;101105;;;;580078;243;24186;-78
2023/05/03 02:28:42;;;;;;;13.07;9.73;;;2.70;99.90;1.80;101104;;;;580168;243;24130;-77
2023/05/03 02:31:12;;;;;;;18.43;9.57;;;2.70;99.90;1.80;101106;;;;580165;243;24068;-77
2023/05/03 02:33:38;;;;;;;12.13;9.20;;;2.70;99.90;1.80;101109;;;;580998;243;24056;-76
2023/05/03 02:36:06;;;;;;;16.20;9.57;;;2.70;99.90;1.80;101113;;;;581440;243;24059;-78
2023/05/03 02:38:34;;;;;;;16.37;8.97;;;2.80;99.90;1.80;101107;;;;581069;243;24080;-78
2023/05/03 02:41:02;;;;;;;14.83;9.47;;;2.80;99.90;1.80;101114;;;;581008;243;24069;-77
2023/05/03 02:43:31;;;;;;;20.00;10.07;;;2.80;99.90;1.80;101108;;;;580692;243;24080;-78
2023/05/03 02:45:59;;;;;;;17.43;10.37;;;2.80;99.90;1.90;101127;;;;580735;243;24061;-77
2023/05/03 02:48:27;;;;;;;14.23;9.07;;;2.80;99.90;1.90;101124;;;;580732;243;24126;-76
2023/05/03 02:50:55;;;;;;;15.37;9.47;;;2.80;99.90;1.90;101123;;;;580590;243;24077;-77
2023/05/03 02:53:24;;;;;;;16.80;9.10;;;2.90;99.90;1.90;101129;;;;580760;243;24061;-77
2023/05/03 02:55:51;;;;;;;12.23;8.53;;;2.80;99.90;1.90;101130;;;;589394;243;24111;-76
2023/05/03 02:58:19;;;;;;;20.77;9.47;;;2.90;99.90;2.00;101128;;;;580517;243;24060;-77
2023/05/03 03:00:47;;;;;;;17.57;9.27;;;2.90;99.90;2.00;101129;;;;580387;243;24067;-77
2023/05/03 03:03:16;;;;;;;11.90;8.87;;;2.90;99.90;2.00;101134;;;;580872;243;24049;-77
2023/05/03 03:05:45;;;;;;;16.70;9.70;;;2.90;99.90;2.00;101130;;;;580465;243;24099;-75
2023/05/03 03:08:13;;;;;;;15.90;9.47;;;2.90;99.90;2.00;101139;;;;580337;243;24072;-77
2023/05/03 03:10:40;;;;;;;14.27;9.00;;;2.90;99.90;2.00;101139;;;;580266;243;24057;-77
2023/05/03 03:13:08;;;;;;;13.90;9.20;;;2.90;99.90;2.00;101142;;;;580140;243;24083;-77
2023/05/03 03:15:36;;;;;;;14.43;9.70;;;3.00;99.90;2.00;101137;;;;580275;243;24056;-77
2023/05/03 03:18:07;;;;;;;11.27;9.03;;;3.00;99.90;2.10;101142;;;;582975;243;24096;-77
2023/05/03 03:20:32;;;;;;;14.70;9.23;;;3.00;99.90;2.10;101141;;;;580013;243;24112;-76
2023/05/03 03:23:00;;;;;;;16.63;8.50;;;3.00;99.90;2.10;101144;;;;580565;243;24107;-78
2023/05/03 03:25:28;;;;;;;15.67;9.07;;;3.00;99.90;2.10;101135;;;;589098;243;24068;-77
2023/05/03 03:27:56;;;;;;;14.70;9.07;;;3.00;99.90;2.10;101149;;;;580222;243;24050;-77
2023/05/03 03:30:24;;;;;;;12.23;8.17;;;3.00;99.90;2.10;101136;;;;580086;243;24113;-77
2023/05/03 03:32:54;;;;;;;11.13;8.17;;;3.10;99.90;2.20;101145;;;;580503;243;24079;-78
2023/05/03 03:35:20;;;;;;;15.40;8.33;;;3.10;99.90;2.20;101154;;;;579978;243;24133;-77
2023/05/03 03:37:47;;;;;;;10.07;7.83;;;3.20;99.90;2.30;101149;;;;578389;243;24076;-76
2023/05/03 03:40:15;;;;;;;12.07;8.13;;;3.20;99.90;2.30;101159;;;;580205;243;24118;-79
2023/05/03 03:42:43;;;;;;;12.67;8.13;;;3.20;99.90;2.40;101155;;;;580140;243;24219;-77
2023/05/03 03:45:11;;;;;;;10.67;8.53;;;3.30;99.90;2.50;101155;;;;580776;243;24062;-77
2023/05/03 03:47:40;;;;;;;11.47;7.70;;;3.40;99.90;2.50;101164;;;;581522;243;24117;-76
2023/05/03 03:50:08;;;;;;;15.47;7.90;;;3.40;99.90;2.50;101166;;;;580993;243;25145;-77
2023/05/03 03:52:36;;;;;;;12.83;8.07;;;3.40;99.90;2.60;101162;;;;581392;243;24099;-77
2023/05/03 03:55:06;;;;;;;12.70;7.97;;;3.50;99.90;2.60;101172;;;;581182;243;24117;-78
2023/05/03 03:57:32;;;;;;;9.37;7.50;;;3.50;99.90;2.70;101166;;;;580735;243;24077;-79
2023/05/03 04:00:02;;;;;;;15.13;8.00;;;3.50;99.90;2.70;101164;;;;580753;243;24059;-76
2023/05/03 04:02:28;;;;;;;9.70;6.67;;;3.60;99.90;2.80;101172;;;;583904;243;24147;-77
2023/05/03 04:04:56;;;;;;;11.80;7.23;;;3.60;99.90;2.80;101173;;;;580622;243;24119;-76
2023/05/03 04:07:24;;;;;;;14.60;6.70;;;3.70;99.90;2.90;101172;;;;580354;243;24116;-79
2023/05/03 04:09:52;;;;;;;12.07;6.10;;;3.80;99.90;3.30;101172;;;;578243;248;24121;-77
2023/05/03 04:12:20;;;;;;;8.33;4.53;;;4.10;99.90;4.50;101172;;;;565908;250;24133;-77
2023/05/03 04:14:48;;;;;;;6.03;4.40;;;6.80;99.90;6.10;101192;;;;566666;249;24102;-77
2023/05/03 04:17:16;;;;;;;17.67;5.37;;;6.80;99.90;7.70;101202;;;;566573;249;24112;-80
2023/05/03 04:19:45;;;;;;;10.30;4.63;;;8.50;99.90;9.30;101207;;;;572093;247;24091;-78
2023/05/03 04:22:12;;;;;;;4.50;4.10;;;10.20;99.90;10.70;101215;;;;566021;250;24143;-77
2023/05/03 04:24:40;;;;;;;5.20;3.43;;;11.60;99.90;11.90;101210;;;;566632;250;24087;-78
2023/05/03 04:27:08;;;;;;;7.47;4.10;;;13.00;99.90;13.10;101215;;;;571942;247;24055;-78
2023/05/03 04:29:37;;;;;;;6.23;3.03;;;15.30;99.90;14.30;101209;;;;561749;251;24149;-78
2023/05/03 04:32:06;;;;;;;3.77;2.93;;;16.40;99.90;15.20;101216;;;;575037;246;24058;-78
2023/05/03 04:34:33;;;;;;;7.90;3.17;;;16.30;99.90;16.10;101221;;;;589027;240;24092;-78
2023/05/03 04:37:01;;;;;;;4.07;3.10;;;17.30;99.90;16.90;101221;;;;584377;243;24053;-78
2023/05/03 04:39:29;;;;;;;4.80;3.10;;;18.10;97.40;17.50;101225;;;;584410;243;24092;-78
2023/05/03 04:42:00;;;;;;;4.57;3.50;;;18.70;93.10;18.00;101231;;;;584241;243;24099;-78
2023/05/03 04:44:25;;;;;;;6.82;3.47;;;19.20;90.40;18.60;101232;;;;568775;245;35162;-80
2023/05/03 04:46:53;;;;;;;4.47;3.17;;;19.70;82.40;18.90;101240;;;;584415;241;24038;-78
2023/05/03 04:49:21;;;;;;;4.10;2.80;;;20.20;80.60;19.60;101238;;;;580007;243;24097;-79
2023/05/03 04:51:48;;;;;;;4.27;3.10;;;20.80;76.20;20.20;101244;;;;584437;243;23133;-78
2023/05/03 04:54:16;;;;;;;3.43;2.57;;;21.30;74.20;20.80;101247;;;;584794;243;24146;-77
2023/05/03 04:56:45;;;;;;;2.57;2.37;;;22.60;66.60;21.50;101240;;;;585238;243;24049;-77
2023/05/03 04:59:13;;;;;;;3.13;2.73;;;22.50;66.50;21.90;101234;;;;585646;243;24080;-78
2023/05/03 05:01:41;;;;;;;4.23;2.40;;;22.90;62.60;22.20;101248;;;;585528;243;24060;-77
2023/05/03 05:04:09;;;;;;;4.83;3.37;;;23.20;59.90;22.00;101253;;;;585244;243;24048;-79
2023/05/03 05:06:37;;;;;;;4.63;2.90;;;23.20;59.30;22.00;101250;;;;585024;243;23101;-77
2023/05/03 05:09:07;;;;;;;5.67;3.43;;;23.30;58.90;22.50;101253;;;;584958;243;23136;-79
2023/05/03 05:11:35;;;;;;;5.63;3.13;;;23.60;58.40;23.00;101254;;;;579848;243;23081;-79
2023/05/03 05:14:04;;;;;;;3.17;2.97;;;24.60;56.40;23.50;101251;;;;580720;243;23151;-77
2023/05/03 05:16:32;;;;;;;5.17;2.87;;;24.50;56.40;24.20;101255;;;;584699;243;23143;-78
2023/05/03 05:19:00;;;;;;;5.80;3.17;;;25.20;54.80;24.70;101262;;;;584386;243;23125;-78
2023/05/03 05:21:28;;;;;;;3.97;2.93;;;25.70;53.90;25.10;101261;;;;584660;243;23115;-77
2023/05/03 05:23:55;;;;;;;3.80;3.00;;;26.10;52.60;25.40;101269;;;;584402;243;24081;-79
2023/05/03 05:26:23;;;;;;;3.20;2.87;;;26.40;51.90;25.70;101269;;;;576992;246;24092;-77
2023/05/03 05:28:51;;;;;;;4.63;2.57;;;26.70;51.10;26.30;101268;;;;580406;239;24124;-78
2023/05/03 05:31:19;;;;;;;3.93;3.13;;;27.20;49.90;27.00;101274;;;;601866;235;23013;-77
2023/05/03 05:33:47;;;;;;;4.00;3.00;;;27.80;49.50;27.50;101283;;;;587420;239;23102;-76
2023/05/03 05:36:16;;;;;;;4.55;2.58;;;28.80;47.00;28.10;101289;;;;563299;250;23151;-77
2023/05/03 05:38:44;;;;;;;2.45;2.28;;;28.70;46.90;28.40;101295;;;;569667;248;23165;-78
2023/05/03 05:41:12;;;;;;;3.37;2.25;;;29.10;46.00;28.60;101297;;;;569771;248;23102;-78
2023/05/03 05:43:39;;;;;;;5.43;2.20;;;29.40;45.50;28.80;101300;;;;569791;248;23106;-79
2023/05/03 05:46:10;;;;;;;3.03;2.35;;;29.60;44.90;28.70;101298;;;;569771;248;23140;-77
2023/05/03 05:48:35;;;;;;;2.45;2.25;;;29.50;44.20;28.90;101298;;;;569609;248;24123;-78
2023/05/03 05:51:03;;;;;;;3.00;1.90;;;29.70;44.40;29.10;101306;;;;569879;248;23110;-79
2023/05/03 05:53:31;;;;;;;2.97;2.22;;;29.90;43.70;29.40;101306;;;;570138;248;23170;-78
2023/05/03 05:55:59;;;;;;;2.28;2.03;;;30.10;43.40;29.80;101309;;;;570190;248;23100;-77
2023/05/03 05:58:27;;;;;;;3.03;2.28;;;30.50;43.40;30.40;101306;;;;569924;248;23112;-78
2023/05/03 06:01:00;;;;;;;4.65;2.15;;;31.40;41.70;30.80;101317;;;;569804;248;23141;-77
2023/05/03 06:03:27;;;;;;;3.15;2.40;;;31.60;40.80;30.90;101325;;;;569558;248;23110;-77
2023/05/03 06:05:55;;;;;;;2.28;2.12;;;31.60;40.80;30.40;101320;;;;569637;248;24143;-78
2023/05/03 06:08:23;;;;;;;5.10;2.45;;;31.30;40.60;30.60;101324;;;;570260;247;24122;-79
2023/05/03 06:10:52;;;;;;;2.25;1.87;;;31.40;40.60;31.20;101323;;;;571026;248;23141;-77
2023/05/03 06:13:19;;;;;;;2.28;2.00;;;31.70;39.80;30.70;101330;;;;577902;245;23111;-78
2023/05/03 06:15:47;;;;;;;3.00;1.70;;;31.60;39.60;31.10;101327;;;;573097;247;23116;-79
2023/05/03 06:18:19;;;;;;;3.65;1.90;;;32.20;39.40;31.60;101331;;;;575928;243;23123;-78
2023/05/03 06:20:44;;;;;;;3.92;1.90;;;32.70;39.10;32.20;101333;;;;586600;243;23085;-78
2023/05/03 06:23:13;;;;;;;3.20;2.20;;;33.50;38.00;33.00;101329;;;;570631;244;23094;-78
2023/05/03 06:25:41;;;;;;;3.25;2.22;;;33.40;38.00;33.00;101332;;;;574734;245;24081;-79
2023/05/03 06:28:09;;;;;;;2.42;2.15;;;33.70;37.10;33.30;101336;;;;570309;244;23176;-80
2023/05/03 06:30:37;;;;;;;2.00;1.87;;;33.90;36.60;33.40;101345;;;;580604;243;23126;-77
2023/05/03 06:33:05;;;;;;;4.30;2.22;;;34.10;36.30;33.60;101335;;;;569829;248;24158;-76
2023/05/03 06:35:32;;;;;;;2.10;1.48;;;34.20;36.50;34.10;101343;;;;582042;235;23030;-77
2023/05/03 06:38:00;;;;;;;1.70;1.60;;;34.60;35.80;33.90;101356;;;;601511;235;23028;-77
2023/05/03 06:40:28;;;;;;;2.28;1.65;;;34.60;34.70;33.20;101352;;;;599181;235;23040;-79
2023/05/03 06:42:56;;;;;;;1.92;1.75;;;34.00;34.50;32.20;101356;;;;581317;246;23055;-78
2023/05/03 06:45:25;;;;;;;2.05;1.95;;;33.30;35.10;32.00;101355;;;;577493;246;23108;-78
2023/05/03 06:47:52;;;;;;;2.08;1.90;;;32.90;35.90;32.50;101366;;;;584297;243;23123;-77
2023/05/03 06:50:21;;;;;;;1.98;1.80;;;33.00;36.00;32.70;101358;;;;569418;246;23117;-77
2023/05/03 06:52:49;;;;;;;3.60;1.90;;;33.00;35.00;32.50;101368;;;;581000;246;23048;-78
2023/05/03 06:55:17;;;;;;;4.32;2.50;;;33.30;35.00;32.90;101361;;;;573638;246;23124;-79
2023/05/03 06:57:51;;;;;;;2.75;1.70;;;33.20;34.90;33.20;101357;;;;572859;248;24130;-77
2023/05/03 07:00:16;;;;;;;3.67;1.87;;;33.60;34.70;34.10;101362;;;;569990;248;23206;-77
2023/05/03 07:02:44;;;;;;;3.60;1.73;;;34.40;34.00;34.50;101367;;;;569472;248;23105;-78
2023/05/03 07:05:09;;;;;;;3.55;2.10;;;34.90;33.40;35.00;101368;;;;567459;239;35309;-77
2023/05/03 07:07:37;;;;;;;1.95;1.70;;;35.50;32.70;35.00;101384;;;;574110;239;23084;-79
2023/05/03 07:10:05;;;;;;;1.70;1.60;;;35.60;33.00;34.90;101381;;;;587407;240;24091;-79
2023/05/03 07:12:33;;;;;;;3.60;1.52;;;35.50;32.50;34.80;101392;;;;601591;237;23051;-78
2023/05/03 07:15:01;;;;;;;3.12;1.98;;;35.30;32.30;34.70;101388;;;;595329;237;23073;-79
2023/05/03 07:17:29;;;;;;;1.60;1.50;;;35.20;32.50;34.80;101395;;;;578127;238;23096;-77
2023/05/03 07:19:56;;;;;;;1.48;1.37;;;35.20;32.30;34.90;101399;;;;574400;245;24104;-77
2023/05/03 07:22:24;;;;;;;1.62;1.50;;;35.30;31.90;35.20;101404;;;;585190;241;23131;-77
2023/05/03 07:24:53;;;;;;;1.52;1.33;;;36.10;31.10;35.70;101399;;;;576532;246;23081;-77
2023/05/03 07:27:21;;;;;;;1.23;1.17;;;36.10;31.10;35.60;101403;;;;574977;246;23128;-76
2023/05/03 07:29:49;;;;;;;1.95;1.40;;;36.10;31.00;35.60;101406;;;;574061;241;46045;-77
2023/05/03 07:32:17;;;;;;;3.08;1.25;;;36.10;30.60;35.10;101401;;;;574944;246;23050;-77
2023/05/03 07:34:45;;;;;;;1.87;1.62;;;35.70;30.80;34.80;101400;;;;588472;239;23078;-76
2023/05/03 07:37:13;;;;;;;1.10;1.00;;;35.40;31.10;35.10;101415;;;;579905;239;23107;-78
2023/05/03 07:39:44;;;;;;;4.18;1.12;;;35.50;31.50;35.40;101408;;;;568854;244;23119;-77
2023/05/03 07:42:08;;;;;;;3.58;1.02;;;35.80;29.90;34.80;101417;;;;576658;248;23096;-77
2023/05/03 07:44:36;;;;;;;0.90;0.90;;;35.40;29.70;34.40;101422;;;;571216;249;23103;-78
2023/05/03 07:47:04;;;;;;;1.52;0.90;;;35.10;29.90;35.00;101419;;;;568534;249;23119;-78
2023/05/03 07:49:35;;;;;;;1.17;1.08;;;35.40;30.00;35.20;101425;;;;568436;249;24134;-78
2023/05/03 07:52:00;;;;;;;2.45;1.10;;;35.60;29.40;35.10;101425;;;;568319;249;23114;-79
2023/05/03 07:54:29;;;;;;;1.92;1.02;;;35.70;29.30;35.20;101418;;;;572232;245;23104;-78
2023/05/03 07:56:57;;;;;;;0.80;0.80;;;35.80;28.90;35.40;101432;;;;575118;246;23081;-78
2023/05/03 07:59:25;;;;;;;0.70;0.70;;;35.90;29.00;35.50;101434;;;;574658;246;23169;-78
2023/05/03 08:01:53;;;;;;;4.03;1.10;;;36.00;28.70;35.00;101429;;;;574639;246;23080;-78
2023/05/03 08:04:23;;;;;;;3.55;1.10;;;35.70;29.20;35.30;101425;;;;574519;246;24126;-77
2023/05/03 08:06:49;;;;;;;1.17;1.10;;;35.80;29.20;35.60;101428;;;;574643;246;23112;-78
2023/05/03 08:09:17;;;;;;;1.10;1.10;;;35.90;29.50;36.00;101428;;;;574510;246;23058;-77
2023/05/03 08:11:45;;;;;;;1.48;1.00;;;36.50;28.90;36.20;101436;;;;574755;246;24099;-78
2023/05/03 08:14:13;;;;;;;2.22;1.30;;;36.70;29.30;36.30;101428;;;;574616;246;23069;-79
2023/05/03 08:16:41;;;;;;;1.98;1.35;;;37.50;29.40;37.10;101427;;;;574800;246;23088;-78
2023/05/03 08:19:10;;;;;;;2.75;1.30;;;38.10;29.30;37.60;101438;;;;574660;246;23148;-78
2023/05/03 08:21:39;;;;;;;1.60;1.12;;;38.60;29.10;38.00;101432;;;;574514;246;23129;-77
2023/05/03 08:24:07;;;;;;;1.77;0.90;;;38.60;29.10;38.20;101436;;;;574674;246;23059;-78
2023/05/03 08:26:35;;;;;;;1.00;1.00;;;38.80;28.30;38.20;101438;;;;574902;246;23059;-79
2023/05/03 08:29:03;;;;;;;2.87;0.95;;;38.90;28.10;38.10;101443;;;;575030;246;24138;-78
2023/05/03 08:31:31;;;;;;;0.90;0.90;;;38.90;28.20;38.80;101452;;;;575436;245;23060;-79
2023/05/03 08:34:00;;;;;;;1.37;1.15;;;39.30;28.40;38.90;101456;;;;575775;246;23082;-77
2023/05/03 08:36:26;;;;;;;2.90;1.77;;;39.50;27.60;38.20;101459;;;;575418;246;23069;-78
2023/05/03 08:38:54;;;;;;;1.10;1.10;;;39.20;27.70;37.80;101458;;;;570101;246;35064;-75
2023/05/03 08:41:25;;;;;;;4.40;1.05;;;38.80;27.40;37.50;101457;;;;575557;246;24118;-77
2023/05/03 08:43:53;;;;;;;0.90;0.90;;;38.50;28.00;38.40;101447;;;;575373;246;23104;-79
2023/05/03 08:46:24;;;;;;;4.45;0.98;;;39.00;28.40;39.50;101457;;;;580684;246;23225;-79
2023/05/03 08:48:48;;;;;;;2.08;0.75;;;40.00;27.80;39.70;101469;;;;577231;244;23064;-79
2023/05/03 08:51:21;;;;;;;1.17;0.82;;;40.50;27.50;39.70;101467;;;;579803;244;23154;-77
2023/05/03 08:53:46;;;;;;;0.70;0.70;;;40.40;27.10;39.40;101465;;;;585335;241;24102;-82
2023/05/03 08:56:32;;;;;;;1.23;0.98;;;40.40;27.00;38.50;101464;;;;575170;246;23047;-79
2023/05/03 08:59:03;;;;;;;2.53;0.93;;;39.30;27.60;38.30;101462;;;;575837;242;24108;-79
2023/05/03 09:01:25;;;;;;;2.08;0.90;;;39.30;27.50;38.50;101473;;;;574644;244;23097;-80
2023/05/03 09:03:53;;;;;;;1.08;1.00;;;39.40;27.60;39.20;101466;;;;583139;242;23081;-79
2023/05/03 09:06:21;;;;;;;2.67;1.50;;;39.80;28.10;39.60;101475;;;;590584;240;23118;-78
2023/05/03 09:08:49;;;;;;;2.05;0.90;;;40.50;27.80;39.80;101479;;;;585092;241;23061;-79
2023/05/03 09:11:32;;;;;;;1.10;0.60;;;40.80;27.10;39.50;101486;;;;578506;244;23065;-78
2023/05/03 09:14:12;;;;;;;1.45;0.90;;;40.60;26.90;39.10;101491;;;;573871;246;24106;-79
2023/05/03 09:16:39;;;;;;;1.50;1.23;;;40.30;27.00;39.30;101485;;;;579738;244;23093;-77
2023/05/03 09:19:11;;;;;;;1.12;1.10;;;40.40;27.10;38.70;101485;;;;585155;242;23011;-79
2023/05/03 09:21:38;;;;;;;1.33;0.95;;;40.00;27.30;38.70;101493;;;;584802;241;23047;-79
2023/05/03 09:24:03;;;;;;;2.03;1.15;;;39.80;28.00;39.50;101487;;;;588853;241;34841;-78
2023/05/03 09:26:35;;;;;;;2.72;1.02;;;41.20;26.70;40.30;101475;;;;574046;246;23047;-79
2023/05/03 09:29:05;;;;;;;1.17;0.80;;;41.20;26.60;41.30;101494;;;;574554;246;23084;-79
2023/05/03 09:31:30;;;;;;;0.88;0.88;;;42.40;26.10;41.10;101482;;;;585243;241;23026;-80
2023/05/03 09:33:58;;;;;;;1.55;0.82;;;42.60;26.00;41.40;101487;;;;574454;246;23066;-79
2023/05/03 09:36:30;;;;;;;2.80;0.80;;;42.80;25.90;41.30;101486;;;;570478;248;23115;-79
2023/05/03 09:38:57;;;;;;;0.80;0.80;;;42.90;26.30;41.50;101490;;;;569841;248;23145;-79
2023/05/03 09:41:28;;;;;;;1.12;1.00;;;43.10;26.00;42.00;101491;;;;569880;248;23122;-80
2023/05/03 09:44:01;;;;;;;3.87;1.08;;;43.50;25.50;41.30;101488;;;;575161;246;23165;-80
2023/05/03 09:46:25;;;;;;;2.20;0.90;;;43.10;25.60;41.30;101489;;;;579270;248;23126;-81
2023/05/03 09:48:55;;;;;;;3.58;1.48;;;42.80;25.20;40.90;101497;;;;579419;248;23091;-79
2023/05/03 09:51:21;;;;;;;3.92;1.08;;;42.90;25.20;41.00;101487;;;;579135;248;23150;-79
2023/05/03 09:53:49;;;;;;;1.15;0.90;;;42.70;25.20;42.00;101492;;;;571889;248;23132;-79
2023/05/03 09:56:19;;;;;;;5.03;1.23;;;43.60;25.20;41.50;101495;;;;571764;243;23166;-78
2023/05/03 09:58:45;;;;;;;0.60;0.60;;;43.50;24.80;42.20;101488;;;;577323;244;23118;-79
2023/05/03 10:01:13;;;;;;;0.90;0.90;;;43.90;25.00;42.90;101495;;;;590722;237;23069;-79
2023/05/03 10:03:41;;;;;;;1.30;1.20;;;44.70;24.90;43.10;101498;;;;587901;237;24076;-78
2023/05/03 10:06:17;;;;;;;1.00;1.00;;;45.00;24.70;42.00;101490;;;;582864;237;23121;-77
2023/05/03 10:08:57;;;;;;;1.30;0.70;;;44.40;24.00;42.00;101503;;;;585147;243;23095;-79
2023/05/03 10:11:26;;;;;;;0.90;0.80;;;43.70;24.30;41.30;101510;;;;584869;237;23064;-79
2023/05/03 10:13:58;;;;;;;3.12;0.88;;;43.60;24.30;40.70;101514;;;;576147;239;23105;-79
2023/05/03 10:16:24;;;;;;;0.60;0.60;;;43.10;24.70;40.60;101501;;;;579822;243;23092;-78
2023/05/03 10:19:07;;;;;;;1.17;0.80;;;42.80;24.40;40.40;101506;;;;579000;244;23131;-78
2023/05/03 10:21:56;;;;;;;1.27;1.17;;;42.00;25.20;39.80;101501;;;;590733;237;23149;-78
2023/05/03 10:24:24;;;;;;;1.00;1.00;;;41.90;24.70;39.20;101504;;;;594439;239;23024;-79
2023/05/03 10:26:53;;;;;;;1.10;1.10;;;40.90;25.30;38.70;101504;;;;589164;239;23060;-78
2023/05/03 10:29:44;;;;;;;2.17;1.25;;;39.80;25.70;37.60;101503;;;;584085;243;23044;-79
2023/05/03 10:32:04;;;;;;;3.40;1.90;;;39.70;25.70;35.70;101502;;;;575636;244;23081;-78
2023/05/03 10:34:38;;;;;;;5.32;1.20;;;38.10;26.20;34.50;101505;;;;577168;244;23076;-77
2023/05/03 10:37:03;;;;;;;2.42;0.93;;;36.70;27.20;33.60;101499;;;;584934;241;23045;-77
2023/05/03 10:39:31;;;;;;;1.58;0.75;;;35.40;27.70;32.70;101496;;;;573380;246;23100;-77
2023/05/03 10:42:02;;;;;;;0.90;0.90;;;34.20;27.90;31.50;101494;;;;574453;246;24084;-76
2023/05/03 10:44:54;;;;;;;1.10;0.90;;;32.70;28.20;30.00;101503;;;;585533;241;24109;-78
2023/05/03 10:47:25;;;;;;;0.85;0.77;;;31.20;30.30;28.00;101506;;;;575089;246;23117;-77
2023/05/03 10:50:12;;;;;;;0.90;0.50;;;29.20;32.00;26.60;101497;;;;585497;241;24045;-77
2023/05/03 10:52:42;;;;;;;1.17;0.90;;;27.80;32.20;25.50;101493;;;;585332;241;23079;-77
2023/05/03 10:55:13;;;;;;;2.97;0.97;;;26.60;33.60;24.40;101498;;;;595424;239;24029;-76
2023/05/03 10:57:41;;;;;;;1.60;0.90;;;25.50;36.10;22.70;101496;;;;575139;246;23085;-78
2023/05/03 11:00:21;;;;;;;4.17;1.07;;;22.50;40.30;21.20;101491;;;;575532;244;24103;-77
2023/05/03 11:03:16;;;;;;;0.80;0.80;;;22.40;40.30;20.00;101499;;;;575162;246;24091;-78
2023/05/03 11:05:45;;;;;;;5.23;0.60;;;20.00;43.80;19.00;101493;;;;563126;246;23102;-77
2023/05/03 11:08:13;;;;;;;0.60;0.60;;;19.40;45.70;18.50;101489;;;;573666;246;24086;-78
2023/05/03 11:10:41;;;;;;;0.97;0.47;;;19.30;45.00;18.10;101488;;;;580593;243;24092;-76
2023/05/03 11:13:09;;;;;;;1.00;0.90;;;18.80;46.40;17.70;101480;;;;583176;235;24048;-78
2023/05/03 11:15:37;;;;;;;0.77;0.77;;;18.40;47.80;17.20;101478;;;;582763;239;24089;-77
2023/05/03 11:18:08;;;;;;;1.00;0.80;;;17.90;48.20;16.60;101483;;;;591989;241;24046;-76
2023/05/03 11:20:36;;;;;;;1.83;1.50;;;17.40;48.90;15.90;101480;;;;579376;246;24134;-76